createdAt,value
2023-09-13T00:00:46.733Z,16.58
2023-09-13T00:03:51.343Z,16.33
2023-09-13T00:06:56.288Z,15.52
2023-09-13T00:10:01.315Z,16.05
2023-09-13T00:13:05.916Z,16.33
2023-09-13T00:16:10.438Z,15.32
2023-09-13T00:19:17.573Z,15.13
2023-09-13T00:22:21.823Z,13.55
2023-09-13T00:25:26.297Z,13.70
2023-09-13T00:28:31.143Z,13.07
2023-09-13T00:31:36.252Z,12.45
2023-09-13T00:34:40.980Z,11.35
2023-09-13T00:37:45.284Z,11.30
2023-09-13T00:40:49.612Z,9.80
2023-09-13T00:43:54.108Z,10.13
2023-09-13T00:46:58.770Z,9.93
2023-09-13T00:50:04.424Z,8.90
2023-09-13T00:53:10.269Z,10.18
2023-09-13T00:56:19.149Z,7.97
2023-09-13T00:59:23.679Z,9.20
2023-09-13T01:02:29.135Z,7.95
2023-09-13T01:05:36.827Z,7.30
2023-09-13T01:08:45.256Z,8.00
2023-09-13T01:11:51.573Z,6.97
2023-09-13T01:14:56.466Z,7.53
2023-09-13T01:18:23.411Z,8.07
2023-09-13T01:22:02.073Z,8.40
2023-09-13T01:25:34.962Z,8.85
2023-09-13T01:28:48.748Z,8.23
2023-09-13T01:31:54.388Z,9.02
2023-09-13T01:34:59.090Z,8.85
2023-09-13T01:38:03.812Z,9.00
2023-09-13T01:41:26.450Z,8.85
2023-09-13T01:44:32.844Z,9.05
2023-09-13T01:47:42.053Z,7.13
2023-09-13T01:50:49.275Z,6.32
2023-09-13T01:53:56.118Z,6.68
2023-09-13T01:57:00.464Z,5.90
2023-09-13T02:00:06.643Z,5.50
2023-09-13T02:03:13.237Z,5.22
2023-09-13T02:06:17.894Z,4.97
2023-09-13T02:09:22.653Z,4.43
2023-09-13T02:12:33.091Z,4.10
2023-09-13T02:15:41.291Z,4.75
2023-09-13T02:18:45.942Z,4.93
2023-09-13T02:21:50.481Z,5.38
2023-09-13T02:24:54.777Z,4.40
2023-09-13T02:27:59.205Z,4.38
2023-09-13T02:31:03.684Z,4.07
2023-09-13T02:34:08.007Z,3.75
2023-09-13T02:37:12.256Z,3.63
2023-09-13T02:40:16.866Z,3.58
2023-09-13T02:43:21.362Z,3.63
2023-09-13T02:46:25.767Z,3.55
2023-09-13T02:49:30.768Z,3.83
2023-09-13T02:52:35.740Z,4.30
2023-09-13T02:55:40.021Z,3.30
2023-09-13T02:58:44.538Z,3.90
2023-09-13T03:01:51.297Z,4.32
2023-09-13T03:04:55.810Z,4.43
2023-09-13T03:08:00.444Z,3.75
2023-09-13T03:11:20.080Z,4.20
2023-09-13T03:14:24.397Z,3.60
2023-09-13T03:17:30.170Z,3.35
2023-09-13T03:20:41.011Z,3.72
2023-09-13T03:23:47.741Z,3.80
2023-09-13T03:26:52.725Z,4.10
2023-09-13T03:29:59.272Z,3.25
2023-09-13T03:33:04.511Z,3.60
2023-09-13T03:36:13.529Z,3.05
2023-09-13T03:39:18.389Z,3.47
2023-09-13T03:42:22.917Z,3.72
2023-09-13T03:45:27.125Z,3.22
2023-09-13T03:48:32.506Z,3.60
2023-09-13T03:51:37.074Z,3.10
2023-09-13T03:54:41.777Z,3.13
2023-09-13T03:57:46.493Z,3.55
2023-09-13T04:00:51.111Z,2.97
2023-09-13T04:03:59.620Z,3.03
2023-09-13T04:07:03.926Z,2.67
2023-09-13T04:10:08.578Z,2.80
2023-09-13T04:13:13.001Z,2.92
2023-09-13T04:16:18.027Z,2.30
2023-09-13T04:19:22.935Z,2.17
2023-09-13T04:22:27.308Z,2.85
2023-09-13T04:25:31.601Z,2.13
2023-09-13T04:28:36.658Z,2.17
2023-09-13T04:31:41.246Z,2.92
2023-09-13T04:34:47.632Z,2.13
2023-09-13T04:37:52.013Z,2.05
2023-09-13T04:40:56.260Z,2.08
2023-09-13T04:44:02.768Z,2.20
2023-09-13T04:47:07.494Z,1.73
2023-09-13T04:50:13.117Z,2.08
2023-09-13T04:53:17.956Z,2.05
2023-09-13T04:56:31.714Z,1.27
2023-09-13T04:59:45.601Z,2.20
2023-09-13T05:02:50.119Z,1.20
2023-09-13T05:05:56.879Z,0.93
2023-09-13T05:09:01.609Z,1.42
2023-09-13T05:12:08.089Z,2.10
2023-09-13T05:15:12.648Z,1.55
2023-09-13T05:18:24.536Z,1.42
2023-09-13T05:21:29.524Z,1.52
2023-09-13T05:24:34.166Z,1.20
2023-09-13T05:27:38.569Z,1.38
2023-09-13T05:30:48.615Z,1.85
2023-09-13T05:33:53.315Z,1.13
2023-09-13T05:36:57.811Z,1.50
2023-09-13T05:40:07.316Z,1.55
2023-09-13T05:43:12.388Z,1.77
2023-09-13T05:46:17.974Z,1.70
2023-09-13T05:49:22.355Z,1.95
2023-09-13T05:52:29.922Z,1.33
2023-09-13T05:55:34.194Z,1.70
2023-09-13T05:58:44.382Z,1.20
2023-09-13T06:01:49.900Z,1.83
2023-09-13T06:04:54.761Z,2.53
2023-09-13T06:07:59.174Z,2.35
2023-09-13T06:11:03.534Z,1.40
2023-09-13T06:14:12.088Z,1.58
2023-09-13T06:17:16.808Z,1.95
2023-09-13T06:20:21.085Z,1.52
2023-09-13T06:23:39.888Z,1.48
2023-09-13T06:26:45.054Z,1.63
2023-09-13T06:29:58.555Z,1.80
2023-09-13T06:33:12.133Z,1.40
2023-09-13T06:36:18.120Z,1.77
2023-09-13T06:39:23.028Z,1.92
2023-09-13T06:42:28.860Z,1.35
2023-09-13T06:45:34.824Z,2.40
2023-09-13T06:48:40.907Z,1.75
2023-09-13T06:54:55.537Z,1.55
2023-09-13T06:58:10.634Z,2.25
2023-09-13T07:04:36.234Z,2.00
2023-09-13T07:07:44.802Z,2.08
2023-09-13T07:10:49.344Z,1.83
2023-09-13T07:13:53.885Z,2.17
2023-09-13T07:16:58.242Z,1.50
2023-09-13T07:20:02.455Z,1.35
2023-09-13T07:23:07.164Z,1.58
2023-09-13T07:26:11.643Z,1.65
2023-09-13T07:29:16.037Z,1.73
2023-09-13T07:32:20.416Z,1.73
2023-09-13T07:35:24.972Z,1.67
2023-09-13T07:38:29.179Z,2.00
2023-09-13T07:41:33.466Z,1.52
2023-09-13T07:44:37.977Z,1.23
2023-09-13T07:47:42.713Z,1.25
2023-09-13T07:50:47.335Z,1.85
2023-09-13T07:53:54.961Z,2.05
2023-09-13T07:56:59.846Z,2.08
2023-09-13T08:00:07.327Z,1.95
2023-09-13T08:03:12.084Z,1.80
2023-09-13T08:06:16.700Z,1.85
2023-09-13T08:09:21.157Z,2.13
2023-09-13T08:12:25.554Z,1.80
2023-09-13T08:15:43.185Z,1.50
2023-09-13T08:18:51.386Z,1.63
2023-09-13T08:21:55.987Z,1.55
2023-09-13T08:25:00.807Z,2.85
2023-09-13T08:28:06.663Z,2.28
2023-09-13T08:31:11.698Z,1.30
2023-09-13T08:34:15.984Z,1.90
2023-09-13T08:37:20.219Z,1.98
2023-09-13T08:40:25.511Z,1.73
2023-09-13T08:43:32.202Z,1.50
2023-09-13T08:46:38.358Z,1.30
2023-09-13T08:49:44.876Z,1.70
2023-09-13T08:52:50.578Z,1.35
2023-09-13T08:55:57.073Z,1.58
2023-09-13T08:59:02.768Z,1.70
2023-09-13T09:02:11.426Z,1.60
2023-09-13T09:05:18.324Z,1.85
2023-09-13T09:08:25.002Z,1.90
2023-09-13T09:11:32.843Z,1.40
2023-09-13T09:14:38.563Z,1.38
2023-09-13T09:17:44.107Z,1.60
2023-09-13T09:20:48.567Z,1.50
2023-09-13T09:23:58.177Z,1.25
2023-09-13T09:27:04.041Z,1.25
2023-09-13T09:30:15.749Z,1.40
2023-09-13T09:33:32.338Z,1.45
2023-09-13T09:36:42.186Z,1.40
2023-09-13T09:39:46.457Z,0.90
2023-09-13T09:42:57.059Z,1.25
2023-09-13T09:46:01.512Z,1.05
2023-09-13T09:49:06.045Z,1.90
2023-09-13T09:52:12.560Z,2.17
2023-09-13T09:55:20.195Z,1.05
2023-09-13T09:58:25.227Z,1.13
2023-09-13T10:01:31.836Z,1.15
2023-09-13T10:04:55.963Z,1.50
2023-09-13T10:08:00.206Z,1.13
2023-09-13T10:11:06.512Z,1.25
2023-09-13T10:14:26.153Z,1.23
2023-09-13T10:17:30.802Z,1.50
2023-09-13T10:20:37.083Z,1.45
2023-09-13T10:23:51.042Z,1.00
2023-09-13T10:30:06.190Z,1.13
2023-09-13T10:33:13.779Z,1.38
2023-09-13T10:36:32.301Z,1.40
2023-09-13T10:39:48.161Z,1.48
2023-09-13T10:42:55.529Z,1.40
2023-09-13T10:46:02.340Z,1.33
2023-09-13T10:49:06.869Z,1.67
2023-09-13T10:52:11.454Z,1.33
2023-09-13T10:55:17.275Z,1.85
2023-09-13T10:58:23.904Z,1.30
2023-09-13T11:01:29.566Z,1.75
2023-09-13T11:04:34.392Z,1.58
2023-09-13T11:07:48.471Z,1.58
2023-09-13T11:10:55.941Z,1.20
2023-09-13T11:14:11.411Z,1.27
2023-09-13T11:17:40.331Z,1.70
2023-09-13T11:20:45.220Z,1.70
2023-09-13T11:27:16.593Z,1.77
2023-09-13T11:30:51.748Z,2.00
2023-09-13T11:34:00.493Z,1.85
2023-09-13T11:37:07.664Z,2.25
2023-09-13T11:40:15.546Z,2.58
2023-09-13T11:43:33.252Z,1.77
2023-09-13T11:46:39.212Z,1.20
2023-09-13T11:49:55.664Z,1.77
2023-09-13T11:53:12.829Z,1.00
2023-09-13T11:56:44.594Z,1.13
2023-09-13T12:00:07.098Z,1.05
2023-09-13T12:03:19.728Z,1.27
2023-09-13T12:06:32.361Z,1.48
2023-09-13T12:09:39.535Z,1.40
2023-09-13T12:12:51.273Z,1.05
2023-09-13T12:16:04.435Z,0.90
2023-09-13T12:19:15.569Z,1.08
2023-09-13T12:22:23.767Z,1.10
2023-09-13T12:25:28.800Z,0.88
2023-09-13T12:28:41.430Z,1.40
2023-09-13T12:31:46.616Z,1.27
2023-09-13T12:34:51.333Z,0.90
2023-09-13T12:38:03.764Z,0.98
2023-09-13T12:41:09.291Z,1.27
2023-09-13T12:44:15.959Z,1.40
2023-09-13T12:47:20.439Z,1.13
2023-09-13T12:50:33.885Z,1.77
2023-09-13T12:53:40.111Z,1.27
2023-09-13T12:56:44.652Z,1.00
2023-09-13T12:59:51.741Z,1.30
2023-09-13T13:02:56.234Z,1.23
2023-09-13T13:06:03.410Z,1.40
2023-09-13T13:09:10.073Z,1.40
2023-09-13T13:12:17.676Z,1.20
2023-09-13T13:15:33.554Z,1.25
2023-09-13T13:18:53.148Z,1.80
2023-09-13T13:22:10.678Z,1.55
2023-09-13T13:25:22.146Z,1.30
2023-09-13T13:28:26.917Z,1.63
2023-09-13T13:31:31.347Z,1.58
2023-09-13T13:34:35.992Z,1.85
2023-09-13T13:37:47.933Z,1.83
2023-09-13T13:41:11.243Z,2.20
2023-09-13T13:44:18.961Z,1.75
2023-09-13T13:47:23.609Z,1.92
2023-09-13T13:51:33.248Z,1.55
2023-09-13T13:54:37.858Z,1.27
2023-09-13T13:57:43.633Z,0.82
2023-09-13T14:00:51.599Z,1.10
2023-09-13T14:03:56.474Z,1.10
2023-09-13T14:07:01.066Z,1.20
2023-09-13T14:10:06.106Z,1.20
2023-09-13T14:13:14.610Z,1.30
2023-09-13T14:16:22.473Z,1.17
2023-09-13T14:19:27.324Z,1.10
2023-09-13T14:22:32.580Z,1.20
2023-09-13T14:25:37.959Z,1.13
2023-09-13T14:28:43.605Z,1.05
2023-09-13T14:31:48.432Z,0.95
2023-09-13T14:34:53.817Z,1.23
2023-09-13T14:38:00.195Z,0.90
2023-09-13T14:41:04.724Z,0.93
2023-09-13T14:44:09.896Z,1.50
2023-09-13T14:47:16.906Z,1.20
2023-09-13T14:50:21.800Z,0.90
2023-09-13T14:53:26.482Z,0.90
2023-09-13T14:56:56.182Z,1.10
2023-09-13T15:00:05.262Z,1.20
2023-09-13T15:03:10.139Z,1.25
2023-09-13T15:06:19.110Z,1.33
2023-09-13T15:09:24.537Z,1.33
2023-09-13T15:12:38.417Z,1.13
2023-09-13T15:15:46.602Z,0.73
2023-09-13T15:18:52.028Z,1.10
2023-09-13T15:21:57.133Z,1.13
2023-09-13T15:25:02.281Z,0.80
2023-09-13T15:28:06.893Z,0.90
2023-09-13T15:31:11.504Z,1.15
2023-09-13T15:34:16.056Z,1.00
2023-09-13T15:37:20.644Z,0.85
2023-09-13T15:40:25.752Z,0.85
2023-09-13T15:43:30.276Z,0.98
2023-09-13T15:46:35.482Z,1.00
2023-09-13T15:49:40.311Z,1.15
2023-09-13T15:52:45.641Z,1.00
2023-09-13T15:55:49.992Z,0.80
2023-09-13T15:58:54.620Z,1.20
2023-09-13T16:01:59.607Z,1.42
2023-09-13T16:05:06.440Z,1.10
2023-09-13T16:08:11.439Z,1.25
2023-09-13T16:11:16.520Z,1.05
2023-09-13T16:14:35.950Z,0.90
2023-09-13T16:17:40.650Z,1.23
2023-09-13T16:20:46.290Z,1.05
2023-09-13T16:23:51.721Z,1.00
2023-09-13T16:26:57.545Z,1.20
2023-09-13T16:30:05.651Z,1.30
2023-09-13T16:33:10.382Z,1.30
2023-09-13T16:36:15.007Z,1.20
2023-09-13T16:39:20.838Z,1.55
2023-09-13T16:42:25.637Z,1.13
2023-09-13T16:45:30.957Z,1.20
2023-09-13T16:48:36.364Z,1.45
2023-09-13T16:51:44.006Z,1.10
2023-09-13T16:54:53.576Z,1.30
2023-09-13T16:57:58.368Z,1.27
2023-09-13T17:01:04.595Z,1.38
2023-09-13T17:04:11.109Z,0.98
2023-09-13T17:07:16.963Z,1.98
2023-09-13T17:10:24.997Z,0.90
2023-09-13T17:13:29.769Z,1.15
2023-09-13T17:16:35.025Z,0.82
2023-09-13T17:19:40.014Z,1.20
2023-09-13T17:22:44.867Z,1.25
2023-09-13T17:25:52.249Z,1.60
2023-09-13T17:28:57.324Z,1.30
2023-09-13T17:32:02.409Z,0.98
2023-09-13T17:35:07.851Z,1.30
2023-09-13T17:38:12.869Z,1.30
2023-09-13T17:41:17.523Z,2.78
2023-09-13T17:44:22.066Z,0.95
2023-09-13T17:47:26.773Z,1.55
2023-09-13T17:50:31.248Z,2.00
2023-09-13T17:53:35.463Z,1.25
2023-09-13T17:56:40.199Z,1.50
2023-09-13T17:59:47.300Z,1.17
2023-09-13T18:02:52.438Z,1.00
2023-09-13T18:05:57.425Z,1.98
2023-09-13T18:09:02.336Z,1.55
2023-09-13T18:12:07.950Z,1.33
2023-09-13T18:15:13.346Z,1.33
2023-09-13T18:18:18.519Z,1.20
2023-09-13T18:21:24.811Z,1.50
2023-09-13T18:24:38.865Z,1.98
2023-09-13T18:27:45.166Z,1.05
2023-09-13T18:31:04.658Z,1.48
2023-09-13T18:34:10.798Z,1.25
2023-09-13T18:37:15.409Z,1.20
2023-09-13T18:40:20.781Z,1.38
2023-09-13T18:43:28.651Z,1.70
2023-09-13T18:46:33.065Z,1.55
2023-09-13T18:49:37.424Z,1.40
2023-09-13T18:52:41.900Z,1.33
2023-09-13T18:55:51.436Z,1.40
2023-09-13T18:58:56.117Z,1.33
2023-09-13T19:02:00.986Z,1.30
2023-09-13T19:05:05.939Z,1.20
2023-09-13T19:08:10.487Z,1.45
2023-09-13T19:11:15.016Z,1.20
2023-09-13T19:14:19.315Z,2.17
2023-09-13T19:17:24.177Z,1.77
2023-09-13T19:20:30.034Z,1.20
2023-09-13T19:23:35.502Z,1.10
2023-09-13T19:26:41.936Z,1.17
2023-09-13T19:29:47.797Z,1.08
2023-09-13T19:32:52.806Z,1.23
2023-09-13T19:36:01.674Z,1.83
2023-09-13T19:39:07.217Z,1.15
2023-09-13T19:42:11.682Z,1.08
2023-09-13T19:45:16.174Z,1.15
2023-09-13T19:48:20.885Z,1.52
2023-09-13T19:51:25.680Z,1.17
2023-09-13T19:54:39.212Z,1.40
2023-09-13T19:57:43.774Z,1.40
2023-09-13T20:00:55.222Z,1.23
2023-09-13T20:04:00.309Z,0.82
2023-09-13T20:07:05.464Z,1.30
2023-09-13T20:10:11.736Z,1.15
2023-09-13T20:13:16.465Z,1.20
2023-09-13T20:16:21.330Z,1.40
2023-09-13T20:19:25.628Z,1.10
2023-09-13T20:22:32.206Z,1.60
2023-09-13T20:25:37.188Z,1.70
2023-09-13T20:28:42.091Z,1.50
2023-09-13T20:31:46.886Z,1.27
2023-09-13T20:34:59.880Z,1.20
2023-09-13T20:38:05.140Z,1.35
2023-09-13T20:41:09.199Z,1.13
2023-09-13T20:44:13.735Z,1.30
2023-09-13T20:47:18.341Z,1.38
2023-09-13T20:50:22.730Z,1.30
2023-09-13T20:53:28.927Z,0.82
2023-09-13T20:56:33.377Z,1.10
2023-09-13T20:59:40.166Z,1.42
2023-09-13T21:02:44.701Z,1.10
2023-09-13T21:05:49.935Z,1.33
2023-09-13T21:08:54.804Z,1.23
2023-09-13T21:11:59.009Z,1.20
2023-09-13T21:15:04.191Z,1.75
2023-09-13T21:18:09.147Z,1.52
2023-09-13T21:21:15.435Z,1.02
2023-09-13T21:24:20.167Z,1.45
2023-09-13T21:27:25.420Z,2.17
2023-09-13T21:30:30.133Z,1.52
2023-09-13T21:33:35.501Z,1.30
2023-09-13T21:36:40.250Z,1.42
2023-09-13T21:39:45.496Z,1.60
2023-09-13T21:42:51.048Z,1.38
2023-09-13T21:46:03.176Z,1.50
2023-09-13T21:49:08.366Z,1.85
2023-09-13T21:52:14.996Z,1.52
2023-09-13T21:55:21.096Z,1.40
2023-09-13T21:58:25.809Z,1.70
2023-09-13T22:01:30.919Z,2.28
2023-09-13T22:04:35.648Z,1.38
2023-09-13T22:07:39.957Z,1.75
2023-09-13T22:10:45.440Z,1.83
2023-09-13T22:13:49.964Z,1.70
2023-09-13T22:16:54.524Z,2.00
2023-09-13T22:19:58.840Z,2.67
2023-09-13T22:23:03.407Z,1.88
2023-09-13T22:26:09.159Z,1.77
2023-09-13T22:29:13.901Z,1.50
2023-09-13T22:32:18.598Z,2.05
2023-09-13T22:35:23.166Z,2.17
2023-09-13T22:38:27.597Z,1.40
2023-09-13T22:41:34.600Z,1.52
2023-09-13T22:44:39.153Z,1.52
2023-09-13T22:47:44.031Z,1.80
2023-09-13T22:50:48.771Z,1.67
2023-09-13T22:53:57.245Z,1.45
2023-09-13T22:57:01.906Z,1.60
2023-09-13T23:00:07.405Z,1.80
2023-09-13T23:03:12.281Z,1.55
2023-09-13T23:06:17.172Z,1.58
2023-09-13T23:09:22.914Z,1.55
2023-09-13T23:12:27.787Z,1.58
2023-09-13T23:15:34.171Z,1.25
2023-09-13T23:18:38.628Z,1.42
2023-09-13T23:21:43.124Z,1.83
2023-09-13T23:24:47.444Z,2.13
2023-09-13T23:27:55.108Z,2.30
2023-09-13T23:31:09.677Z,1.90
2023-09-13T23:37:20.822Z,1.63
2023-09-13T23:40:26.231Z,1.70
2023-09-13T23:43:35.511Z,2.50
2023-09-13T23:46:40.038Z,1.90
2023-09-13T23:49:44.680Z,1.70
2023-09-13T23:52:48.903Z,2.15
2023-09-13T23:55:54.075Z,1.98
2023-09-13T23:58:58.773Z,1.67
